Weather observations for the past three days for
Rome, R. B. Russell Airport
| Date | Time (edt) | Wind (kph) | Vis. (km) | Weather | Sky Cond. | Temperature (ºC) | Relative Humidity | Wind Chill (°C) | Heat Index (°C) | Pressure | Precipitation (cm) | ||||||
|---|---|---|---|---|---|---|---|---|---|---|---|---|---|---|---|---|---|
| Air | Dwpt | 6 hour | altimeter (cm) | sea level (mb) | 1 hr | 3 hr | 6 hr | ||||||||||
| Max. | Min. | ||||||||||||||||
| 10 | 12:53 | N 7 | 16.09 | A Few Clouds | FEW035 | 25 | 12.8 | 47% | 26 | 76.3 | 1016.5 | ||||||
| 10 | 11:53 | Calm | 16.09 | Fair | CLR | 22.8 | 16.1 | 66% | 76.33 | 1016.9 | |||||||
| 10 | 10:53 | Calm | 14.48 | Mostly Cloudy | BKN006 | 19.4 | 16.1 | 81% | 76.35 | 1017.2 | |||||||
| 10 | 09:53 | Calm | 8.05 | Fog/Mist | OVC003 | 17.2 | 16.1 | 93% | 76.33 | 1017.0 | |||||||
| 10 | 08:53 | Calm | 3.22 | Fog/Mist | OVC002 | 16.7 | 16.1 | 96% | 76.3 | 1016.7 | |||||||
| 10 | 07:53 | N 7 | 4.02 | Fog/Mist | OVC003 | 16.1 | 15.6 | 16.1 | 12.8 | 97% | 76.28 | 1016.0 | |||||
| 10 | 06:53 | Calm | 11.27 | Overcast | OVC005 | 15.6 | 15 | 96% | 76.2 | 1015.0 | |||||||
| 10 | 05:53 | Calm | 9.66 | Fog/Mist | OVC005 | 14.4 | 13.9 | 97% | 76.12 | 1014.3 | |||||||
| 10 | 04:52 | Calm | 0.40 | Fog | VV002 | 13.9 | 13.3 | 96% | 76.1 | 1013.8 | |||||||
| 10 | 03:53 | Calm | 0.80 | Fog | VV002 | 13.3 | 12.8 | 97% | 76.05 | 1013.2 | |||||||
| 10 | 02:53 | Calm | 9.66 | Fog/Mist | CLR | 13.9 | 13.9 | 100% | 76.05 | 1013.1 | |||||||
| 10 | 01:53 | Calm | 11.27 | Fair | CLR | 15.6 | 15 | 21.1 | 15.6 | 96% | 76.05 | 1013.1 | |||||
| 10 | 00:53 | S 7 | 12.87 | Fair | CLR | 16.1 | 15 | 93% | 76.07 | 1013.5 | |||||||
| 09 | 23:53 | Calm | 16.09 | Mostly Cloudy | BKN047 | 17.8 | 16.7 | 93% | 76.07 | 1013.7 | |||||||
| 09 | 22:53 | Calm | 16.09 | Mostly Cloudy | BKN044 BKN055 | 17.8 | 16.1 | 90% | 76.05 | 1013.2 | |||||||
| 09 | 21:53 | Calm | 16.09 | A Few Clouds | FEW047 | 18.3 | 16.1 | 87% | 76 | 1012.4 | |||||||
| 09 | 20:53 | Calm | 16.09 | Fair | CLR | 18.9 | 16.7 | 87% | 75.92 | 1011.6 | |||||||
| 09 | 19:53 | Calm | 16.09 | Fair | CLR | 20.6 | 16.7 | 24.4 | 20.6 | 78% | 75.9 | 1011.2 | |||||
| 09 | 18:53 | NW 7 | 16.09 | Fair | CLR | 22.8 | 15 | 62% | 75.87 | 1010.8 | |||||||
| 09 | 17:53 | Vrbl 7 | 16.09 | Partly Cloudy | FEW039 SCT047 | 23.9 | 15 | 58% | 25 | 75.84 | 1010.4 | ||||||
| 09 | 16:53 | W 9 | 16.09 | A Few Clouds | FEW033 | 23.9 | 15 | 58% | 25 | 75.84 | 1010.3 | ||||||
| 09 | 15:53 | Calm | 16.09 | Fair | CLR | 23.3 | 14.4 | 57% | 75.82 | 1010.2 | |||||||
| 09 | 14:53 | Vrbl 7 | 16.09 | Partly Cloudy | SCT029 | 22.2 | 14.4 | 61% | 75.87 | 1010.9 | |||||||
| 09 | 13:53 | S 6 | 16.09 | Partly Cloudy | SCT025 | 21.1 | 14.4 | 21.1 | 13.9 | 66% | 75.9 | 1011.2 | |||||
| 09 | 12:53 | Calm | 16.09 | A Few Clouds | FEW019 | 20 | 14.4 | 70% | 75.92 | 1011.7 | |||||||
| 09 | 11:53 | S 9 | 16.09 | Mostly Cloudy | FEW008 BKN020 | 17.8 | 15 | 84% | 75.97 | 1012.3 | |||||||
| 09 | 10:53 | SW 7 | 6.44 | Fog/Mist | BKN007 OVC015 | 16.1 | 15 | 93% | 76.02 | 1012.8 | |||||||
| 09 | 09:53 | S 6 | 12.87 | Overcast | OVC011 | 15.6 | 13.9 | 90% | 75.95 | 1011.8 | |||||||
| 09 | 08:53 | S 6 | 16.09 | Overcast | OVC010 | 14.4 | 13.3 | 93% | 75.95 | 1011.8 | |||||||
| 09 | 07:53 | Calm | 16.09 | Overcast | OVC011 | 14.4 | 12.2 | 14.4 | 11.7 | 87% | 75.92 | 1011.5 | |||||
| 09 | 06:53 | Calm | 16.09 | Overcast | OVC015 | 13.3 | 12.2 | 93% | 75.9 | 1011.0 | |||||||
| 09 | 05:53 | Calm | 16.09 | Overcast | OVC019 | 12.8 | 12.2 | 96% | 75.9 | 1011.1 | |||||||
| 09 | 04:53 | N 6 | 16.09 | Mostly Cloudy | SCT050 BKN110 | 12.8 | 11.7 | 93% | 75.9 | 1011.2 | |||||||
| 09 | 03:53 | Calm | 16.09 | Overcast | OVC055 | 12.2 | 11.7 | 97% | 75.92 | 1011.3 | |||||||
| 09 | 02:53 | Calm | 16.09 | Partly Cloudy | SCT023 SCT050 | 12.2 | 11.1 | 93% | 75.9 | 1011.2 | |||||||
| 09 | 01:53 | Calm | 16.09 | Partly Cloudy | SCT060 | 12.2 | 11.1 | 17.2 | 12.2 | 93% | 75.95 | 1012.0 | |||||
| 09 | 00:53 | NW 6 | 16.09 | Partly Cloudy | SCT065 | 12.8 | 12.2 | 96% | 76 | 1012.4 | |||||||
| 08 | 23:53 | Calm | 16.09 | Fair | CLR | 13.3 | 12.2 | 93% | 76 | 1012.7 | |||||||
| 08 | 22:53 | N 6 | 16.09 | Fair | CLR | 13.9 | 12.8 | 93% | 76.02 | 1013.0 | |||||||
| 08 | 21:53 | Calm | 16.09 | Fair | CLR | 14.4 | 12.8 | 90% | 76.02 | 1013.0 | |||||||
| 08 | 20:53 | Calm | 16.09 | Fair | CLR | 16.1 | 13.3 | 84% | 76.02 | 1012.8 | |||||||
| 08 | 19:53 | SW 6 | 16.09 | Fair | CLR | 16.7 | 12.8 | 22.2 | 16.7 | 78% | 76.02 | 1012.9 | |||||
| 08 | 18:53 | Calm | 16.09 | Fair | CLR | 18.9 | 12.8 | 68% | 76.02 | 1012.9 | |||||||
| 08 | 17:53 | SW 7 | 16.09 | Fair | CLR | 20.6 | 8.3 | 45% | 76.05 | 1013.2 | |||||||
| 08 | 16:53 | SE 9 | 16.09 | Fair | CLR | 21.1 | 6.7 | 39% | 76.02 | 1012.9 | |||||||
| 08 | 15:53 | E 7 | 16.09 | Fair | CLR | 21.1 | 5.6 | 37% | 76.05 | 1013.3 | |||||||
| 08 | 14:53 | E 7 | 16.09 | Fair | CLR | 21.7 | 5.6 | 35% | 76.12 | 1014.3 | |||||||
| 08 | 13:53 | E 7 | 16.09 | Fair | CLR | 21.1 | 6.1 | 21.1 | 10.6 | 38% | 76.17 | 1015.0 | |||||
| 08 | 12:53 | S 7 | 16.09 | Fair | CLR | 20.6 | 6.1 | 39% | 76.25 | 1015.9 | |||||||
| 08 | 11:53 | Calm | 16.09 | Fair | CLR | 18.9 | 7.2 | 47% | 76.33 | 1017.0 | |||||||
| 08 | 10:53 | Calm | 16.09 | Fair | CLR | 17.2 | 8.9 | 58% | 76.38 | 1017.5 | |||||||
| 08 | 09:53 | Calm | 16.09 | Fair | CLR | 15 | 8.9 | 67% | 76.38 | 1017.6 | |||||||
| 08 | 08:53 | NE 6 | 16.09 | Fair | CLR | 12.8 | 8.9 | 77% | 76.4 | 1017.9 | |||||||
| 08 | 07:53 | Calm | 16.09 | Fair | CLR | 10.6 | 8.9 | 11.7 | 8.9 | 89% | 76.33 | 1017.2 | |||||
| 08 | 06:53 | Calm | 16.09 | Fair | CLR | 8.9 | 8.3 | 96% | 76.25 | 1016.2 | |||||||
| 08 | 05:53 | Calm | 16.09 | Fair | CLR | 8.9 | 8.3 | 96% | 76.17 | 1014.9 | |||||||
| 08 | 04:53 | Calm | 16.09 | Fair | CLR | 10 | 8.9 | 93% | 76.17 | 1014.9 | |||||||
| 08 | 03:53 | Calm | 16.09 | Fair | CLR | 10 | 9.4 | 96% | 76.15 | 1014.6 | |||||||
| 08 | 02:53 | E 6 | 16.09 | Fair | CLR | 10.6 | 10 | 96% | 76.17 | 1015.0 | |||||||
| 08 | 01:53 | Calm | 16.09 | Fair | CLR | 11.7 | 10 | 18.3 | 11.7 | 89% | 76.17 | 1015.2 | |||||
| 08 | 00:53 | N 6 | 16.09 | Fair | CLR | 12.2 | 11.1 | 93% | 76.17 | 1015.1 | |||||||
| 07 | 23:53 | NW 9 | 16.09 | Fair | CLR | 14.4 | 10.6 | 78% | 76.17 | 1015.0 | |||||||
| 07 | 22:53 | N 6 | 16.09 | Fair | CLR | 14.4 | 12.2 | 87% | 76.15 | 1014.6 | |||||||
| 07 | 21:53 | NW 6 | 16.09 | Fair | CLR | 16.1 | 11.1 | 72% | 76.12 | 1014.3 | |||||||
| 07 | 20:53 | NW 7 | 16.09 | Fair | CLR | 16.1 | 12.8 | 81% | 76.07 | 1013.5 | |||||||
| 07 | 19:53 | Calm | 16.09 | Fair | CLR | 18.3 | 12.8 | 21.1 | 17.2 | 70% | 76.02 | 1012.9 | |||||
| 07 | 18:53 | NW 11 | 16.09 | Fair | CLR | 19.4 | 12.2 | 63% | 76.02 | 1012.7 | |||||||
| 07 | 17:53 | NW 13 | 16.09 | Mostly Cloudy | FEW035 BKN048 | 20 | 12.8 | 63% | 76 | 1012.4 | |||||||
| 07 | 16:53 | W 9 | 16.09 | Mostly Cloudy | FEW029 SCT039 BKN047 | 20.6 | 12.8 | 61% | 75.95 | 1011.8 | |||||||
| 07 | 15:53 | W 11 | 16.09 | Mostly Cloudy | SCT029 BKN038 | 19.4 | 13.3 | 68% | 75.95 | 1011.9 | |||||||
| 07 | 14:53 | W 11 | 16.09 | Mostly Cloudy | FEW026 BKN032 | 19.4 | 12.8 | 66% | 76 | 1012.4 | |||||||
| 07 | 13:53 | NW 9 | 16.09 | Overcast | OVC018 | 17.2 | 12.8 | 18.3 | 15.6 | 76% | 76.05 | 1013.2 | |||||
| Date | Time (edt) | Wind (kph) | Vis. (km) | Weather | Sky Cond. | Air | Dwpt | Max. | Min. | Relative Humidity | Wind Chill (°C) | Heat Index (°C) | altimeter (cm) | sea level (mb) | 1 hr | 3 hr | 6 hr |
| 6 hour | |||||||||||||||||
| Temperature (ºC) | Pressure | Precipitation (cm) | |||||||||||||||